createdAt,value
2023-04-16T00:01:34.756Z,40.72
2023-04-16T00:04:01.397Z,35.97
2023-04-16T00:06:28.608Z,38.13
2023-04-16T00:08:55.262Z,38.30
2023-04-16T00:11:22.110Z,40.70
2023-04-16T00:13:49.020Z,39.75
2023-04-16T00:16:15.697Z,41.35
2023-04-16T00:18:42.272Z,41.03
2023-04-16T00:21:08.738Z,41.58
2023-04-16T00:23:35.216Z,43.60
2023-04-16T00:26:01.685Z,41.67
2023-04-16T00:28:28.114Z,39.20
2023-04-16T00:30:55.667Z,39.83
2023-04-16T00:33:22.608Z,43.08
2023-04-16T00:35:49.035Z,38.97
2023-04-16T00:38:15.882Z,42.42
2023-04-16T00:40:42.354Z,39.75
2023-04-16T00:43:08.793Z,41.47
2023-04-16T00:45:36.167Z,37.70
2023-04-16T00:48:03.301Z,41.35
2023-04-16T00:50:29.942Z,37.72
2023-04-16T00:52:56.808Z,37.08
2023-04-16T00:55:23.299Z,43.90
2023-04-16T00:57:49.757Z,36.28
2023-04-16T01:00:16.656Z,41.83
2023-04-16T01:02:43.279Z,41.70
2023-04-16T01:05:09.949Z,45.05
2023-04-16T01:07:36.779Z,40.63
2023-04-16T01:10:04.066Z,37.85
2023-04-16T01:12:30.605Z,41.35
2023-04-16T01:14:57.229Z,37.13
2023-04-16T01:17:23.752Z,40.22
2023-04-16T01:19:50.291Z,37.80
2023-04-16T01:22:17.312Z,37.78
2023-04-16T01:24:44.998Z,39.55
2023-04-16T01:27:11.464Z,39.28
2023-04-16T01:29:37.961Z,37.22
2023-04-16T01:32:04.414Z,36.30
2023-04-16T01:34:33.549Z,40.08
2023-04-16T01:37:00.192Z,36.50
2023-04-16T01:39:27.236Z,36.63
2023-04-16T01:41:53.693Z,35.78
2023-04-16T01:44:20.202Z,40.17
2023-04-16T01:46:46.691Z,42.20
2023-04-16T01:49:13.702Z,37.10
2023-04-16T01:51:40.280Z,37.03
2023-04-16T01:54:06.803Z,35.78
2023-04-16T01:56:33.592Z,34.42
2023-04-16T01:59:00.312Z,37.65
2023-04-16T02:01:32.924Z,35.88
2023-04-16T02:03:59.837Z,33.58
2023-04-16T02:06:27.374Z,38.67
2023-04-16T02:08:53.986Z,39.08
2023-04-16T02:11:21.143Z,37.92
2023-04-16T02:13:49.042Z,40.08
2023-04-16T02:16:17.394Z,38.28
2023-04-16T02:18:49.503Z,38.42
2023-04-16T02:21:17.943Z,33.22
2023-04-16T02:23:47.548Z,36.55
2023-04-16T02:26:14.063Z,33.17
2023-04-16T02:28:41.015Z,34.03
2023-04-16T02:31:09.735Z,35.67
2023-04-16T02:33:41.167Z,32.03
2023-04-16T02:36:07.952Z,32.90
2023-04-16T02:38:34.473Z,31.88
2023-04-16T02:41:01.003Z,36.95
2023-04-16T02:43:28.613Z,35.10
2023-04-16T02:45:55.228Z,32.30
2023-04-16T02:48:22.078Z,34.13
2023-04-16T02:50:48.691Z,30.80
2023-04-16T02:53:15.416Z,29.58
2023-04-16T02:55:42.169Z,34.10
2023-04-16T02:58:08.671Z,33.03
2023-04-16T03:00:35.410Z,31.95
2023-04-16T03:03:02.411Z,29.13
2023-04-16T03:05:29.049Z,30.35
2023-04-16T03:07:56.787Z,31.83
2023-04-16T03:10:24.126Z,33.25
2023-04-16T03:12:51.027Z,33.63
2023-04-16T03:15:17.695Z,32.13
2023-04-16T03:17:44.399Z,35.17
2023-04-16T03:20:11.361Z,32.30
2023-04-16T03:22:39.541Z,32.83
2023-04-16T03:25:07.836Z,30.48
2023-04-16T03:27:35.258Z,30.58
2023-04-16T03:30:02.541Z,32.10
2023-04-16T03:32:29.798Z,28.95
2023-04-16T03:34:56.382Z,29.50
2023-04-16T03:37:23.114Z,30.67
2023-04-16T03:39:50.715Z,29.77
2023-04-16T03:42:17.513Z,26.90
2023-04-16T03:44:43.996Z,30.92
2023-04-16T03:47:11.294Z,32.78
2023-04-16T03:49:38.007Z,30.80
2023-04-16T03:52:04.743Z,31.77
2023-04-16T03:54:31.432Z,31.65
2023-04-16T03:57:08.878Z,28.92
2023-04-16T03:59:35.738Z,34.38
2023-04-16T04:02:02.347Z,28.80
2023-04-16T04:04:29.019Z,29.95
2023-04-16T04:06:57.286Z,28.42
2023-04-16T04:09:26.240Z,27.88
2023-04-16T04:11:53.048Z,29.67
2023-04-16T04:14:19.626Z,29.90
2023-04-16T04:16:46.281Z,31.13
2023-04-16T04:19:14.460Z,28.77
2023-04-16T04:21:41.426Z,29.25
2023-04-16T04:24:08.771Z,32.92
2023-04-16T04:26:35.474Z,31.13
2023-04-16T04:29:02.361Z,28.80
2023-04-16T04:31:29.990Z,26.80
2023-04-16T04:33:56.738Z,31.02
2023-04-16T04:36:23.293Z,29.42
2023-04-16T04:38:50.081Z,29.40
2023-04-16T04:41:17.140Z,28.00
2023-04-16T04:43:46.873Z,29.80
2023-04-16T04:46:13.594Z,26.30
2023-04-16T04:48:40.940Z,27.98
2023-04-16T04:51:07.585Z,29.15
2023-04-16T04:53:34.164Z,26.70
2023-04-16T04:56:09.150Z,28.70
2023-04-16T04:58:38.698Z,30.23
2023-04-16T05:01:05.303Z,26.83
2023-04-16T05:03:32.041Z,27.83
2023-04-16T05:05:58.711Z,28.60
2023-04-16T05:08:25.360Z,25.38
2023-04-16T05:10:52.119Z,27.48
2023-04-16T05:13:18.736Z,25.98
2023-04-16T05:15:45.805Z,26.63
2023-04-16T05:18:12.258Z,24.38
2023-04-16T05:20:38.838Z,26.10
2023-04-16T05:23:05.324Z,28.13
2023-04-16T05:25:31.791Z,31.67
2023-04-16T05:27:58.280Z,27.95
2023-04-16T05:30:24.852Z,28.75
2023-04-16T05:32:51.667Z,27.40
2023-04-16T05:35:18.208Z,28.67
2023-04-16T05:37:44.729Z,29.13
2023-04-16T05:40:13.777Z,33.75
2023-04-16T05:42:40.326Z,30.50
2023-04-16T05:45:07.278Z,30.65
2023-04-16T05:47:33.848Z,28.63
2023-04-16T05:50:00.363Z,27.70
2023-04-16T05:52:26.942Z,25.15
2023-04-16T05:54:53.423Z,27.55
2023-04-16T05:57:19.909Z,25.75
2023-04-16T05:59:46.452Z,26.05
2023-04-16T06:02:13.088Z,26.23
2023-04-16T06:04:39.665Z,28.45
2023-04-16T06:07:06.362Z,34.05
2023-04-16T06:09:32.836Z,25.90
2023-04-16T06:11:59.741Z,27.33
2023-04-16T06:14:26.278Z,29.23
2023-04-16T06:16:52.817Z,26.25
2023-04-16T06:19:19.272Z,25.88
2023-04-16T06:21:45.905Z,30.42
2023-04-16T06:24:13.198Z,29.63
2023-04-16T06:26:39.869Z,29.05
2023-04-16T06:29:06.335Z,24.85
2023-04-16T06:31:32.957Z,31.75
2023-04-16T06:33:59.506Z,29.17
2023-04-16T06:36:27.561Z,28.58
2023-04-16T06:38:54.083Z,27.13
2023-04-16T06:41:22.663Z,28.90
2023-04-16T06:43:49.305Z,30.60
2023-04-16T06:46:15.876Z,30.27
2023-04-16T06:48:42.585Z,30.45
2023-04-16T06:51:09.152Z,30.42
2023-04-16T06:53:37.466Z,27.63
2023-04-16T06:56:04.351Z,29.90
2023-04-16T06:58:30.936Z,29.52
2023-04-16T07:00:57.488Z,32.28
2023-04-16T07:03:24.151Z,34.53
2023-04-16T07:05:50.958Z,28.30
2023-04-16T07:08:17.402Z,30.67
2023-04-16T07:10:43.992Z,27.42
2023-04-16T07:13:10.681Z,28.02
2023-04-16T07:15:37.339Z,29.25
2023-04-16T07:18:03.909Z,27.23
2023-04-16T07:20:30.489Z,34.28
2023-04-16T07:22:59.210Z,28.80
2023-04-16T07:25:26.881Z,30.23
2023-04-16T07:27:53.458Z,27.23
2023-04-16T07:30:19.912Z,27.85
2023-04-16T07:32:46.519Z,32.45
2023-04-16T07:35:13.014Z,27.98
2023-04-16T07:37:39.411Z,28.15
2023-04-16T07:40:06.863Z,27.08
2023-04-16T07:42:33.301Z,26.20
2023-04-16T07:44:59.754Z,26.50
2023-04-16T07:47:27.116Z,28.75
2023-04-16T07:49:53.775Z,27.13
2023-04-16T07:52:20.386Z,27.08
2023-04-16T07:54:47.078Z,26.70
2023-04-16T07:57:13.464Z,27.27
2023-04-16T07:59:40.019Z,25.70
2023-04-16T08:02:07.274Z,27.20
2023-04-16T08:04:33.950Z,25.85
2023-04-16T08:07:00.769Z,28.58
2023-04-16T08:09:28.492Z,26.45
2023-04-16T08:11:55.306Z,28.17
2023-04-16T08:14:21.804Z,28.90
2023-04-16T08:16:48.449Z,25.92
2023-04-16T08:19:14.998Z,26.55
2023-04-16T08:21:41.636Z,24.90
2023-04-16T08:24:08.038Z,28.50
2023-04-16T08:26:34.695Z,27.83
2023-04-16T08:29:01.097Z,27.40
2023-04-16T08:31:27.730Z,25.30
2023-04-16T08:33:54.187Z,29.77
2023-04-16T08:36:20.843Z,24.83
2023-04-16T08:38:47.603Z,25.90
2023-04-16T08:41:14.914Z,29.95
2023-04-16T08:43:45.443Z,26.55
2023-04-16T08:46:12.942Z,26.17
2023-04-16T08:48:42.766Z,27.17
2023-04-16T08:51:10.958Z,24.60
2023-04-16T08:53:49.773Z,30.27
2023-04-16T08:56:19.969Z,26.63
2023-04-16T08:58:48.744Z,27.70
2023-04-16T09:01:18.001Z,26.35
2023-04-16T09:03:47.087Z,26.92
2023-04-16T09:06:15.865Z,26.85
2023-04-16T09:08:44.280Z,25.92
2023-04-16T09:11:11.912Z,25.00
2023-04-16T09:13:38.400Z,26.70
2023-04-16T09:16:07.280Z,25.60
2023-04-16T09:18:33.727Z,25.98
2023-04-16T09:21:00.316Z,26.42
2023-04-16T09:23:26.787Z,25.77
2023-04-16T09:25:53.200Z,23.10
2023-04-16T09:28:42.504Z,27.23
2023-04-16T09:31:10.597Z,29.95
2023-04-16T09:33:37.086Z,24.50
2023-04-16T09:36:03.780Z,25.70
2023-04-16T09:38:47.811Z,25.40
2023-04-16T09:41:16.598Z,26.85
2023-04-16T09:44:04.111Z,25.80
2023-04-16T09:46:33.618Z,27.25
2023-04-16T09:49:08.486Z,28.25
2023-04-16T09:51:41.297Z,27.00
2023-04-16T09:54:08.876Z,25.92
2023-04-16T09:56:46.605Z,24.75
2023-04-16T09:59:25.261Z,28.13
2023-04-16T10:01:57.389Z,25.63
2023-04-16T10:04:50.469Z,25.48
2023-04-16T10:07:17.537Z,25.35
2023-04-16T10:09:44.405Z,25.27
2023-04-16T10:12:12.789Z,26.95
2023-04-16T10:14:40.001Z,24.00
2023-04-16T10:17:07.445Z,28.58
2023-04-16T10:19:35.332Z,23.05
2023-04-16T10:22:02.651Z,26.67
2023-04-16T10:24:31.101Z,24.50
2023-04-16T10:26:58.319Z,24.45
2023-04-16T10:29:27.114Z,22.67
2023-04-16T10:31:55.280Z,24.33
2023-04-16T10:34:23.369Z,24.08
2023-04-16T10:36:54.967Z,25.90
2023-04-16T10:39:23.618Z,23.48
2023-04-16T10:41:51.479Z,25.27
2023-04-16T10:44:19.323Z,21.70
2023-04-16T10:46:49.820Z,23.60
2023-04-16T10:49:22.298Z,22.70
2023-04-16T10:52:17.082Z,25.52
2023-04-16T10:54:43.882Z,22.95
2023-04-16T10:57:16.053Z,22.10
2023-04-16T10:59:44.012Z,25.10
2023-04-16T11:02:16.004Z,21.98
2023-04-16T11:04:45.215Z,25.17
2023-04-16T11:07:13.802Z,21.67
2023-04-16T11:09:59.851Z,22.17
2023-04-16T11:12:34.178Z,25.23
2023-04-16T11:15:11.975Z,24.08
2023-04-16T11:17:46.544Z,23.42
2023-04-16T11:20:21.534Z,22.50
2023-04-16T11:22:55.985Z,24.38
2023-04-16T11:25:24.178Z,24.10
2023-04-16T11:27:51.804Z,23.48
2023-04-16T11:30:27.775Z,27.30
2023-04-16T11:32:54.456Z,21.77
2023-04-16T11:35:21.058Z,23.75
2023-04-16T11:37:50.511Z,20.52
2023-04-16T11:40:17.013Z,25.10
2023-04-16T11:42:44.474Z,21.73
2023-04-16T11:45:12.398Z,23.48
2023-04-16T11:47:55.439Z,21.42
2023-04-16T11:50:24.580Z,26.40
2023-04-16T11:52:53.113Z,24.75
2023-04-16T11:55:20.861Z,23.20
2023-04-16T11:57:47.804Z,22.30
2023-04-16T12:00:15.334Z,22.17
2023-04-16T12:02:49.919Z,21.20
2023-04-16T12:05:33.870Z,23.02
2023-04-16T12:08:03.246Z,20.83
2023-04-16T12:10:31.171Z,20.00
2023-04-16T12:13:14.424Z,20.42
2023-04-16T12:15:55.940Z,20.02
2023-04-16T12:18:24.272Z,19.52
2023-04-16T12:20:51.302Z,20.08
2023-04-16T12:23:29.566Z,21.73
2023-04-16T12:26:02.135Z,21.58
2023-04-16T12:28:30.029Z,19.00
2023-04-16T12:30:56.980Z,21.60
2023-04-16T12:33:23.718Z,18.08
2023-04-16T12:35:50.661Z,18.55
2023-04-16T12:38:17.377Z,17.05
2023-04-16T12:40:44.123Z,17.08
2023-04-16T12:43:10.726Z,16.67
2023-04-16T12:45:38.892Z,17.10
2023-04-16T12:48:05.961Z,16.83
2023-04-16T12:50:32.795Z,18.73
2023-04-16T12:52:59.699Z,17.42
2023-04-16T12:55:26.242Z,16.17
2023-04-16T12:57:53.024Z,18.33
2023-04-16T13:00:20.077Z,15.60
2023-04-16T13:02:47.136Z,16.58
2023-04-16T13:05:16.496Z,17.88
2023-04-16T13:07:43.194Z,18.42
2023-04-16T13:10:10.471Z,16.73
2023-04-16T13:12:37.203Z,19.52
2023-04-16T13:15:04.304Z,17.77
2023-04-16T13:17:31.184Z,20.85
2023-04-16T13:19:57.715Z,18.38
2023-04-16T13:22:24.346Z,21.05
2023-04-16T13:24:50.900Z,21.33
2023-04-16T13:27:17.907Z,19.98
2023-04-16T13:29:44.852Z,17.88
2023-04-16T13:32:13.704Z,19.05
2023-04-16T13:34:40.321Z,20.23
2023-04-16T13:37:07.029Z,21.52
2023-04-16T13:39:33.772Z,18.23
2023-04-16T13:42:00.373Z,19.75
2023-04-16T13:44:26.888Z,19.17
2023-04-16T13:46:53.573Z,20.05
2023-04-16T13:49:20.210Z,21.00
2023-04-16T13:51:47.007Z,18.23
2023-04-16T13:54:13.614Z,19.55
2023-04-16T13:56:40.877Z,21.05
2023-04-16T13:59:08.129Z,16.77
2023-04-16T14:01:34.873Z,18.20
2023-04-16T14:04:06.098Z,19.65
2023-04-16T14:06:34.339Z,16.42
2023-04-16T14:09:01.299Z,20.10
2023-04-16T14:11:28.062Z,19.10
2023-04-16T14:13:54.831Z,18.75
2023-04-16T14:16:21.522Z,18.90
2023-04-16T14:18:48.136Z,16.85
2023-04-16T14:21:14.605Z,21.25
2023-04-16T14:23:41.212Z,17.73
2023-04-16T14:26:08.111Z,17.55
2023-04-16T14:28:35.774Z,19.02
2023-04-16T14:31:02.511Z,19.52
2023-04-16T14:33:29.273Z,19.92
2023-04-16T14:35:55.989Z,18.00
2023-04-16T14:38:22.673Z,18.98
2023-04-16T14:40:49.384Z,20.85
2023-04-16T14:43:16.043Z,19.67
2023-04-16T14:45:42.638Z,18.38
2023-04-16T14:48:09.340Z,19.40
2023-04-16T14:50:37.944Z,19.02
2023-04-16T14:53:05.571Z,18.80
2023-04-16T14:55:32.626Z,19.20
2023-04-16T14:57:59.756Z,19.73
2023-04-16T15:00:27.463Z,18.23
2023-04-16T15:02:57.825Z,24.17
2023-04-16T15:05:24.575Z,18.10
2023-04-16T15:07:51.163Z,18.80
2023-04-16T15:10:17.848Z,18.42
2023-04-16T15:12:44.281Z,20.08
2023-04-16T15:15:11.321Z,19.35
2023-04-16T15:17:37.926Z,18.58
2023-04-16T15:20:08.242Z,19.08
2023-04-16T15:22:34.909Z,23.00
2023-04-16T15:25:01.368Z,21.13
2023-04-16T15:27:27.937Z,18.38
2023-04-16T15:29:54.423Z,18.00
2023-04-16T15:32:20.989Z,19.60
2023-04-16T15:34:47.497Z,20.38
2023-04-16T15:37:14.009Z,17.40
2023-04-16T15:39:40.751Z,19.13
2023-04-16T15:42:07.824Z,20.73
2023-04-16T15:44:34.894Z,20.70
2023-04-16T15:47:01.391Z,17.95
2023-04-16T15:49:28.004Z,20.30
2023-04-16T15:51:55.695Z,19.35
2023-04-16T15:54:22.183Z,18.77
2023-04-16T15:56:48.722Z,19.30
2023-04-16T15:59:15.128Z,18.48
2023-04-16T16:01:41.563Z,21.60
2023-04-16T16:04:08.465Z,19.77
2023-04-16T16:06:35.812Z,19.15
2023-04-16T16:09:02.254Z,18.90
2023-04-16T16:11:28.821Z,18.23
2023-04-16T16:13:55.395Z,21.30
2023-04-16T16:16:22.046Z,17.20
2023-04-16T16:18:48.756Z,19.63
2023-04-16T16:21:15.277Z,18.20
2023-04-16T16:23:42.045Z,17.00
2023-04-16T16:26:09.204Z,17.55
2023-04-16T16:28:37.825Z,17.95
2023-04-16T16:31:06.035Z,19.58
2023-04-16T16:33:33.207Z,19.77
2023-04-16T16:35:59.772Z,16.55
2023-04-16T16:38:26.296Z,21.55
2023-04-16T16:40:52.770Z,18.08
2023-04-16T16:43:20.239Z,21.80
2023-04-16T16:45:47.161Z,16.45
2023-04-16T16:48:13.714Z,17.45
2023-04-16T16:50:40.230Z,16.98
2023-04-16T16:53:06.743Z,18.80
2023-04-16T16:55:33.292Z,20.48
2023-04-16T16:57:59.830Z,18.50
2023-04-16T17:00:26.641Z,20.77
2023-04-16T17:02:53.449Z,19.58
2023-04-16T17:05:20.378Z,21.08
2023-04-16T17:07:46.979Z,18.77
2023-04-16T17:10:19.991Z,19.95
2023-04-16T17:12:51.016Z,22.92
2023-04-16T17:15:20.520Z,18.77
2023-04-16T17:17:48.198Z,19.20
2023-04-16T17:20:15.724Z,21.55
2023-04-16T17:22:42.400Z,19.23
2023-04-16T17:25:09.245Z,23.48
2023-04-16T17:27:35.767Z,19.42
2023-04-16T17:30:03.479Z,18.92
2023-04-16T17:32:32.386Z,20.52
2023-04-16T17:35:00.382Z,21.35
2023-04-16T17:37:27.281Z,20.08
2023-04-16T17:39:53.701Z,19.55
2023-04-16T17:42:20.461Z,21.58
2023-04-16T17:44:47.056Z,20.15
2023-04-16T17:47:13.482Z,19.92
2023-04-16T17:49:39.955Z,21.83
2023-04-16T17:52:06.715Z,22.27
2023-04-16T17:54:33.135Z,18.73
2023-04-16T17:56:59.621Z,22.38
2023-04-16T17:59:26.259Z,23.02
2023-04-16T18:01:52.964Z,20.83
2023-04-16T18:04:19.837Z,20.25
2023-04-16T18:06:46.551Z,20.92
2023-04-16T18:09:14.225Z,23.98
2023-04-16T18:11:40.733Z,21.77
2023-04-16T18:14:09.773Z,19.30
2023-04-16T18:16:36.763Z,21.83
2023-04-16T18:19:03.289Z,20.15
2023-04-16T18:21:30.340Z,21.15
2023-04-16T18:23:57.316Z,18.60
2023-04-16T18:26:25.273Z,21.00
2023-04-16T18:28:51.901Z,17.38
2023-04-16T18:31:21.201Z,22.35
2023-04-16T18:33:56.269Z,21.42
2023-04-16T18:36:24.408Z,22.65
2023-04-16T18:39:15.152Z,18.52
2023-04-16T18:41:38.062Z,20.02
2023-04-16T18:44:04.562Z,19.77
2023-04-16T18:46:31.028Z,21.63
2023-04-16T18:48:59.018Z,18.83
2023-04-16T18:51:27.027Z,19.42
2023-04-16T18:53:53.473Z,21.50
2023-04-16T18:56:19.920Z,22.73
2023-04-16T18:58:47.566Z,20.10
2023-04-16T19:01:14.141Z,21.75
2023-04-16T19:03:40.768Z,21.75
2023-04-16T19:06:07.569Z,19.83
2023-04-16T19:08:34.007Z,19.30
2023-04-16T19:11:00.487Z,19.83
2023-04-16T19:13:27.211Z,21.88
2023-04-16T19:16:00.840Z,18.65
2023-04-16T19:18:27.814Z,21.13
2023-04-16T19:21:01.147Z,18.08
2023-04-16T19:23:28.640Z,20.50
2023-04-16T19:25:56.700Z,18.80
2023-04-16T19:28:23.876Z,19.30
2023-04-16T19:30:51.318Z,19.83
2023-04-16T19:33:18.516Z,23.08
2023-04-16T19:35:45.989Z,19.38
2023-04-16T19:38:12.529Z,18.92
2023-04-16T19:40:39.886Z,23.60
2023-04-16T19:43:06.365Z,21.05
2023-04-16T19:45:32.909Z,23.45
2023-04-16T19:47:59.459Z,21.50
2023-04-16T19:50:25.994Z,18.52
2023-04-16T19:52:52.411Z,19.98
2023-04-16T19:55:19.078Z,23.67
2023-04-16T19:57:47.843Z,21.70
2023-04-16T20:00:14.762Z,21.40
2023-04-16T20:02:41.391Z,20.25
2023-04-16T20:05:08.398Z,17.55
2023-04-16T20:07:34.822Z,18.30
2023-04-16T20:10:02.706Z,22.17
2023-04-16T20:12:29.180Z,23.25
2023-04-16T20:14:55.982Z,18.60
2023-04-16T20:17:22.656Z,18.95
2023-04-16T20:19:49.488Z,19.17
2023-04-16T20:22:18.223Z,19.85
2023-04-16T20:24:47.767Z,19.48
2023-04-16T20:27:15.208Z,21.08
2023-04-16T20:29:42.051Z,23.08
2023-04-16T20:32:08.490Z,19.50
2023-04-16T20:34:34.905Z,21.70
2023-04-16T20:37:01.371Z,19.65
2023-04-16T20:39:27.799Z,22.85
2023-04-16T20:41:57.133Z,20.15
2023-04-16T20:44:26.370Z,20.98
2023-04-16T20:46:54.917Z,22.52
2023-04-16T20:49:21.515Z,20.55
2023-04-16T20:51:48.123Z,19.98
2023-04-16T20:54:14.560Z,20.77
2023-04-16T20:56:41.545Z,20.92
2023-04-16T20:59:08.823Z,18.75
2023-04-16T21:01:35.447Z,21.02
2023-04-16T21:04:02.328Z,17.10
2023-04-16T21:06:32.716Z,21.20
2023-04-16T21:08:59.125Z,19.60
2023-04-16T21:11:26.167Z,20.70
2023-04-16T21:13:52.557Z,20.08
2023-04-16T21:16:19.048Z,20.25
2023-04-16T21:18:45.509Z,19.73
2023-04-16T21:21:11.940Z,19.05
2023-04-16T21:23:38.418Z,20.73
2023-04-16T21:26:04.854Z,18.85
2023-04-16T21:28:31.302Z,21.27
2023-04-16T21:30:57.726Z,19.38
2023-04-16T21:33:24.152Z,18.33
2023-04-16T21:35:52.201Z,19.15
2023-04-16T21:38:19.418Z,19.63
2023-04-16T21:40:50.345Z,22.10
2023-04-16T21:43:17.807Z,21.45
2023-04-16T21:45:44.261Z,19.85
2023-04-16T21:48:10.804Z,21.17
2023-04-16T21:50:37.505Z,19.40
2023-04-16T21:53:06.547Z,19.00
2023-04-16T21:55:34.650Z,20.83
2023-04-16T21:58:01.642Z,18.55
2023-04-16T22:00:28.585Z,21.88
2023-04-16T22:02:56.107Z,20.88
2023-04-16T22:05:25.664Z,21.42
2023-04-16T22:07:52.990Z,18.95
2023-04-16T22:10:19.537Z,17.70
2023-04-16T22:12:46.542Z,20.48
2023-04-16T22:15:13.680Z,20.13
2023-04-16T22:17:40.898Z,20.23
2023-04-16T22:20:12.905Z,19.17
2023-04-16T22:22:40.878Z,20.50
2023-04-16T22:25:07.672Z,20.80
2023-04-16T22:27:34.640Z,18.67
2023-04-16T22:30:01.757Z,19.85
2023-04-16T22:32:30.211Z,20.90
2023-04-16T22:34:56.823Z,19.50
2023-04-16T22:37:23.258Z,20.60
2023-04-16T22:39:49.872Z,19.48
2023-04-16T22:42:16.358Z,18.35
2023-04-16T22:44:43.012Z,20.83
2023-04-16T22:47:09.432Z,19.90
2023-04-16T22:49:36.129Z,20.58
2023-04-16T22:52:02.740Z,23.50
2023-04-16T22:54:32.600Z,23.83
2023-04-16T22:57:00.917Z,22.40
2023-04-16T22:59:27.339Z,24.50
2023-04-16T23:01:53.818Z,22.35
2023-04-16T23:04:20.415Z,22.85
2023-04-16T23:06:46.998Z,24.08
2023-04-16T23:09:13.721Z,20.75
2023-04-16T23:11:40.559Z,20.33
2023-04-16T23:14:07.562Z,21.70
2023-04-16T23:16:34.047Z,20.27
2023-04-16T23:19:00.475Z,21.60
2023-04-16T23:21:26.945Z,21.17
2023-04-16T23:23:53.433Z,21.30
2023-04-16T23:26:19.846Z,22.70
2023-04-16T23:28:46.237Z,22.92
2023-04-16T23:31:12.810Z,25.63
2023-04-16T23:33:39.261Z,22.40
2023-04-16T23:36:05.998Z,21.98
2023-04-16T23:38:32.494Z,21.13
2023-04-16T23:40:59.292Z,21.98
2023-04-16T23:43:25.773Z,25.35
2023-04-16T23:45:52.251Z,21.70
2023-04-16T23:48:18.755Z,24.23
2023-04-16T23:50:45.266Z,22.70
2023-04-16T23:53:11.711Z,23.42
2023-04-16T23:55:38.109Z,21.25
2023-04-16T23:58:04.559Z,21.92
